sensor_id;sensor_type;location;lat;lon;timestamp;P1;durP1;ratioP1;P2;durP2;ratioP2
19193;SDS011;9729;52.296;13.260;2022-09-09T00:00:26;11.60;;;7.70;;
19193;SDS011;9729;52.296;13.260;2022-09-09T00:02:57;18.73;;;7.80;;
19193;SDS011;9729;52.296;13.260;2022-09-09T00:05:31;9.63;;;7.63;;
19193;SDS011;9729;52.296;13.260;2022-09-09T00:08:02;10.70;;;8.43;;
19193;SDS011;9729;52.296;13.260;2022-09-09T00:10:33;11.57;;;8.43;;
19193;SDS011;9729;52.296;13.260;2022-09-09T00:13:03;11.97;;;8.90;;
19193;SDS011;9729;52.296;13.260;2022-09-09T00:15:35;11.83;;;7.73;;
19193;SDS011;9729;52.296;13.260;2022-09-09T00:18:12;13.03;;;8.40;;
19193;SDS011;9729;52.296;13.260;2022-09-09T00:20:44;10.50;;;7.63;;
19193;SDS011;9729;52.296;13.260;2022-09-09T00:23:14;14.00;;;8.00;;
19193;SDS011;9729;52.296;13.260;2022-09-09T00:25:46;9.80;;;8.50;;
19193;SDS011;9729;52.296;13.260;2022-09-09T00:28:17;12.33;;;8.03;;
19193;SDS011;9729;52.296;13.260;2022-09-09T00:30:45;11.47;;;7.40;;
19193;SDS011;9729;52.296;13.260;2022-09-09T00:33:15;8.43;;;6.63;;
19193;SDS011;9729;52.296;13.260;2022-09-09T00:35:44;8.47;;;6.90;;
19193;SDS011;9729;52.296;13.260;2022-09-09T00:38:12;14.23;;;8.20;;
19193;SDS011;9729;52.296;13.260;2022-09-09T00:40:41;11.63;;;7.10;;
19193;SDS011;9729;52.296;13.260;2022-09-09T00:43:26;14.27;;;7.13;;
19193;SDS011;9729;52.296;13.260;2022-09-09T00:48:44;12.50;;;6.40;;
19193;SDS011;9729;52.296;13.260;2022-09-09T00:51:17;9.30;;;7.10;;
19193;SDS011;9729;52.296;13.260;2022-09-09T00:54:06;11.17;;;6.70;;
19193;SDS011;9729;52.296;13.260;2022-09-09T00:56:46;24.33;;;6.90;;
19193;SDS011;9729;52.296;13.260;2022-09-09T00:59:22;10.20;;;7.40;;
19193;SDS011;9729;52.296;13.260;2022-09-09T01:01:54;9.03;;;6.50;;
19193;SDS011;9729;52.296;13.260;2022-09-09T01:04:23;14.53;;;7.67;;
19193;SDS011;9729;52.296;13.260;2022-09-09T01:06:57;11.87;;;7.00;;
19193;SDS011;9729;52.296;13.260;2022-09-09T01:09:30;10.13;;;7.43;;
19193;SDS011;9729;52.296;13.260;2022-09-09T01:12:07;9.00;;;7.30;;
19193;SDS011;9729;52.296;13.260;2022-09-09T01:14:39;10.23;;;7.57;;
19193;SDS011;9729;52.296;13.260;2022-09-09T01:17:11;11.60;;;7.87;;
19193;SDS011;9729;52.296;13.260;2022-09-09T01:19:48;13.37;;;7.40;;
19193;SDS011;9729;52.296;13.260;2022-09-09T01:22:25;11.53;;;8.30;;
19193;SDS011;9729;52.296;13.260;2022-09-09T01:25:06;10.53;;;8.30;;
19193;SDS011;9729;52.296;13.260;2022-09-09T01:27:42;13.17;;;9.17;;
19193;SDS011;9729;52.296;13.260;2022-09-09T01:30:10;16.30;;;9.03;;
19193;SDS011;9729;52.296;13.260;2022-09-09T01:32:38;12.83;;;9.60;;
19193;SDS011;9729;52.296;13.260;2022-09-09T01:35:07;16.83;;;9.80;;
19193;SDS011;9729;52.296;13.260;2022-09-09T01:37:36;15.77;;;10.07;;
19193;SDS011;9729;52.296;13.260;2022-09-09T01:40:03;15.03;;;10.00;;
19193;SDS011;9729;52.296;13.260;2022-09-09T01:42:30;21.17;;;10.47;;
19193;SDS011;9729;52.296;13.260;2022-09-09T01:44:58;15.30;;;9.97;;
19193;SDS011;9729;52.296;13.260;2022-09-09T01:47:25;17.27;;;10.53;;
19193;SDS011;9729;52.296;13.260;2022-09-09T01:49:51;14.90;;;10.17;;
19193;SDS011;9729;52.296;13.260;2022-09-09T01:52:18;17.27;;;9.60;;
19193;SDS011;9729;52.296;13.260;2022-09-09T01:54:44;16.40;;;10.57;;
19193;SDS011;9729;52.296;13.260;2022-09-09T01:57:12;17.70;;;10.63;;
19193;SDS011;9729;52.296;13.260;2022-09-09T01:59:45;17.20;;;10.17;;
19193;SDS011;9729;52.296;13.260;2022-09-09T02:02:19;16.10;;;9.70;;
19193;SDS011;9729;52.296;13.260;2022-09-09T02:04:50;13.90;;;10.30;;
19193;SDS011;9729;52.296;13.260;2022-09-09T02:07:22;11.90;;;9.33;;
19193;SDS011;9729;52.296;13.260;2022-09-09T02:09:57;21.10;;;9.73;;
19193;SDS011;9729;52.296;13.260;2022-09-09T02:12:27;15.80;;;9.17;;
19193;SDS011;9729;52.296;13.260;2022-09-09T02:14:55;16.77;;;9.17;;
19193;SDS011;9729;52.296;13.260;2022-09-09T02:17:26;14.50;;;9.13;;
19193;SDS011;9729;52.296;13.260;2022-09-09T02:19:56;16.40;;;9.43;;
19193;SDS011;9729;52.296;13.260;2022-09-09T02:22:26;13.57;;;8.60;;
19193;SDS011;9729;52.296;13.260;2022-09-09T02:24:53;15.20;;;9.00;;
19193;SDS011;9729;52.296;13.260;2022-09-09T02:27:24;11.03;;;8.13;;
19193;SDS011;9729;52.296;13.260;2022-09-09T02:29:51;14.97;;;9.50;;
19193;SDS011;9729;52.296;13.260;2022-09-09T02:32:19;17.27;;;9.40;;
19193;SDS011;9729;52.296;13.260;2022-09-09T02:34:49;13.20;;;9.70;;
19193;SDS011;9729;52.296;13.260;2022-09-09T02:37:19;15.17;;;9.10;;
19193;SDS011;9729;52.296;13.260;2022-09-09T02:39:46;18.83;;;9.20;;
19193;SDS011;9729;52.296;13.260;2022-09-09T02:42:13;10.87;;;7.63;;
19193;SDS011;9729;52.296;13.260;2022-09-09T02:44:40;16.20;;;9.13;;
19193;SDS011;9729;52.296;13.260;2022-09-09T02:47:11;12.70;;;8.43;;
19193;SDS011;9729;52.296;13.260;2022-09-09T02:49:50;17.83;;;8.50;;
19193;SDS011;9729;52.296;13.260;2022-09-09T02:52:24;18.70;;;9.93;;
19193;SDS011;9729;52.296;13.260;2022-09-09T02:54:54;11.47;;;8.67;;
19193;SDS011;9729;52.296;13.260;2022-09-09T02:57:25;15.10;;;9.47;;
19193;SDS011;9729;52.296;13.260;2022-09-09T02:59:55;15.87;;;8.87;;
19193;SDS011;9729;52.296;13.260;2022-09-09T03:02:23;15.70;;;9.27;;
19193;SDS011;9729;52.296;13.260;2022-09-09T03:04:51;17.13;;;9.73;;
19193;SDS011;9729;52.296;13.260;2022-09-09T03:07:18;14.43;;;8.93;;
19193;SDS011;9729;52.296;13.260;2022-09-09T03:09:45;13.17;;;9.10;;
19193;SDS011;9729;52.296;13.260;2022-09-09T03:12:11;12.63;;;9.07;;
19193;SDS011;9729;52.296;13.260;2022-09-09T03:14:38;18.83;;;8.30;;
19193;SDS011;9729;52.296;13.260;2022-09-09T03:17:05;12.13;;;7.87;;
19193;SDS011;9729;52.296;13.260;2022-09-09T03:19:31;13.63;;;8.00;;
19193;SDS011;9729;52.296;13.260;2022-09-09T03:22:00;10.73;;;8.10;;
19193;SDS011;9729;52.296;13.260;2022-09-09T03:24:27;12.77;;;8.33;;
19193;SDS011;9729;52.296;13.260;2022-09-09T03:26:53;13.03;;;7.97;;
19193;SDS011;9729;52.296;13.260;2022-09-09T03:29:20;19.10;;;8.97;;
19193;SDS011;9729;52.296;13.260;2022-09-09T03:31:47;13.07;;;8.33;;
19193;SDS011;9729;52.296;13.260;2022-09-09T03:34:13;16.00;;;9.27;;
19193;SDS011;9729;52.296;13.260;2022-09-09T03:36:40;11.23;;;8.90;;
19193;SDS011;9729;52.296;13.260;2022-09-09T03:39:08;14.20;;;8.20;;
19193;SDS011;9729;52.296;13.260;2022-09-09T03:41:34;12.37;;;7.80;;
19193;SDS011;9729;52.296;13.260;2022-09-09T03:44:02;12.70;;;7.80;;
19193;SDS011;9729;52.296;13.260;2022-09-09T03:46:28;11.23;;;7.30;;
19193;SDS011;9729;52.296;13.260;2022-09-09T03:48:55;14.90;;;7.53;;
19193;SDS011;9729;52.296;13.260;2022-09-09T03:51:22;10.43;;;7.67;;
19193;SDS011;9729;52.296;13.260;2022-09-09T03:53:48;10.07;;;6.93;;
19193;SDS011;9729;52.296;13.260;2022-09-09T03:56:16;14.17;;;7.50;;
19193;SDS011;9729;52.296;13.260;2022-09-09T03:58:43;9.77;;;6.73;;
19193;SDS011;9729;52.296;13.260;2022-09-09T04:01:10;11.90;;;7.40;;
19193;SDS011;9729;52.296;13.260;2022-09-09T04:03:39;12.70;;;7.33;;
19193;SDS011;9729;52.296;13.260;2022-09-09T04:06:06;10.90;;;7.63;;
19193;SDS011;9729;52.296;13.260;2022-09-09T04:08:34;10.30;;;6.80;;
19193;SDS011;9729;52.296;13.260;2022-09-09T04:11:02;17.93;;;7.27;;
19193;SDS011;9729;52.296;13.260;2022-09-09T04:13:32;9.57;;;7.17;;
19193;SDS011;9729;52.296;13.260;2022-09-09T04:16:00;8.27;;;7.00;;
19193;SDS011;9729;52.296;13.260;2022-09-09T04:18:29;13.53;;;7.13;;
19193;SDS011;9729;52.296;13.260;2022-09-09T04:20:56;10.50;;;7.00;;
19193;SDS011;9729;52.296;13.260;2022-09-09T04:23:23;10.67;;;6.80;;
19193;SDS011;9729;52.296;13.260;2022-09-09T04:25:51;10.23;;;6.97;;
19193;SDS011;9729;52.296;13.260;2022-09-09T04:28:18;12.70;;;7.17;;
19193;SDS011;9729;52.296;13.260;2022-09-09T04:30:50;13.37;;;7.93;;
19193;SDS011;9729;52.296;13.260;2022-09-09T04:33:17;10.17;;;7.23;;
19193;SDS011;9729;52.296;13.260;2022-09-09T04:35:45;12.87;;;8.17;;
19193;SDS011;9729;52.296;13.260;2022-09-09T04:38:12;13.00;;;7.57;;
19193;SDS011;9729;52.296;13.260;2022-09-09T04:40:41;8.63;;;7.17;;
19193;SDS011;9729;52.296;13.260;2022-09-09T04:43:08;9.57;;;6.80;;
19193;SDS011;9729;52.296;13.260;2022-09-09T04:45:35;10.00;;;7.20;;
19193;SDS011;9729;52.296;13.260;2022-09-09T04:48:03;15.70;;;7.10;;
19193;SDS011;9729;52.296;13.260;2022-09-09T04:50:29;10.83;;;6.57;;
19193;SDS011;9729;52.296;13.260;2022-09-09T04:52:59;8.03;;;6.27;;
19193;SDS011;9729;52.296;13.260;2022-09-09T04:55:28;8.23;;;5.40;;
19193;SDS011;9729;52.296;13.260;2022-09-09T04:57:55;12.93;;;5.90;;
19193;SDS011;9729;52.296;13.260;2022-09-09T05:00:21;10.27;;;6.17;;
19193;SDS011;9729;52.296;13.260;2022-09-09T05:02:48;10.97;;;6.07;;
19193;SDS011;9729;52.296;13.260;2022-09-09T05:05:15;6.67;;;5.67;;
19193;SDS011;9729;52.296;13.260;2022-09-09T05:07:42;10.00;;;5.97;;
19193;SDS011;9729;52.296;13.260;2022-09-09T05:10:08;11.70;;;6.03;;
19193;SDS011;9729;52.296;13.260;2022-09-09T05:12:35;7.20;;;5.10;;
19193;SDS011;9729;52.296;13.260;2022-09-09T05:15:01;8.63;;;5.97;;
19193;SDS011;9729;52.296;13.260;2022-09-09T05:17:28;10.20;;;5.30;;
19193;SDS011;9729;52.296;13.260;2022-09-09T05:19:54;9.00;;;5.50;;
19193;SDS011;9729;52.296;13.260;2022-09-09T05:22:22;8.67;;;5.40;;
19193;SDS011;9729;52.296;13.260;2022-09-09T05:24:48;12.47;;;5.83;;
19193;SDS011;9729;52.296;13.260;2022-09-09T05:27:15;9.07;;;5.00;;
19193;SDS011;9729;52.296;13.260;2022-09-09T05:29:43;11.07;;;5.63;;
19193;SDS011;9729;52.296;13.260;2022-09-09T05:32:15;10.40;;;4.93;;
19193;SDS011;9729;52.296;13.260;2022-09-09T05:34:42;8.37;;;5.37;;
19193;SDS011;9729;52.296;13.260;2022-09-09T05:37:08;8.43;;;4.57;;
19193;SDS011;9729;52.296;13.260;2022-09-09T05:39:36;8.10;;;4.77;;
19193;SDS011;9729;52.296;13.260;2022-09-09T05:42:03;8.40;;;3.93;;
19193;SDS011;9729;52.296;13.260;2022-09-09T05:44:30;7.63;;;4.67;;
19193;SDS011;9729;52.296;13.260;2022-09-09T05:46:56;8.83;;;3.97;;
19193;SDS011;9729;52.296;13.260;2022-09-09T05:49:23;7.07;;;3.40;;
19193;SDS011;9729;52.296;13.260;2022-09-09T05:51:50;10.43;;;4.00;;
19193;SDS011;9729;52.296;13.260;2022-09-09T05:54:16;4.73;;;3.30;;
19193;SDS011;9729;52.296;13.260;2022-09-09T05:56:44;5.90;;;3.20;;
19193;SDS011;9729;52.296;13.260;2022-09-09T05:59:10;6.20;;;3.00;;
19193;SDS011;9729;52.296;13.260;2022-09-09T06:01:37;8.83;;;3.43;;
19193;SDS011;9729;52.296;13.260;2022-09-09T06:04:05;7.00;;;3.83;;
19193;SDS011;9729;52.296;13.260;2022-09-09T06:06:33;7.50;;;3.60;;
19193;SDS011;9729;52.296;13.260;2022-09-09T06:09:02;6.67;;;3.73;;
19193;SDS011;9729;52.296;13.260;2022-09-09T06:11:31;6.83;;;3.47;;
19193;SDS011;9729;52.296;13.260;2022-09-09T06:14:02;6.03;;;3.70;;
19193;SDS011;9729;52.296;13.260;2022-09-09T06:16:29;11.73;;;4.20;;
19193;SDS011;9729;52.296;13.260;2022-09-09T06:18:57;9.33;;;4.67;;
19193;SDS011;9729;52.296;13.260;2022-09-09T06:21:25;7.57;;;4.00;;
19193;SDS011;9729;52.296;13.260;2022-09-09T06:23:52;15.10;;;5.07;;
19193;SDS011;9729;52.296;13.260;2022-09-09T06:26:19;8.03;;;4.80;;
19193;SDS011;9729;52.296;13.260;2022-09-09T06:28:48;8.90;;;4.37;;
19193;SDS011;9729;52.296;13.260;2022-09-09T06:31:17;9.70;;;3.83;;
19193;SDS011;9729;52.296;13.260;2022-09-09T06:33:46;8.10;;;4.43;;
19193;SDS011;9729;52.296;13.260;2022-09-09T06:36:13;6.53;;;4.03;;
19193;SDS011;9729;52.296;13.260;2022-09-09T06:38:41;4.93;;;3.70;;
19193;SDS011;9729;52.296;13.260;2022-09-09T06:41:08;10.83;;;4.77;;
19193;SDS011;9729;52.296;13.260;2022-09-09T06:43:35;9.90;;;4.87;;
19193;SDS011;9729;52.296;13.260;2022-09-09T06:46:03;9.27;;;4.50;;
19193;SDS011;9729;52.296;13.260;2022-09-09T06:48:31;6.33;;;4.17;;
19193;SDS011;9729;52.296;13.260;2022-09-09T06:51:02;4.97;;;3.87;;
19193;SDS011;9729;52.296;13.260;2022-09-09T06:53:29;8.63;;;3.87;;
19193;SDS011;9729;52.296;13.260;2022-09-09T06:55:58;5.50;;;3.07;;
19193;SDS011;9729;52.296;13.260;2022-09-09T06:58:25;6.53;;;3.80;;
19193;SDS011;9729;52.296;13.260;2022-09-09T07:00:52;9.90;;;3.60;;
19193;SDS011;9729;52.296;13.260;2022-09-09T07:03:18;10.70;;;4.20;;
19193;SDS011;9729;52.296;13.260;2022-09-09T07:05:54;6.07;;;3.97;;
19193;SDS011;9729;52.296;13.260;2022-09-09T07:08:21;9.50;;;4.67;;
19193;SDS011;9729;52.296;13.260;2022-09-09T07:10:47;11.77;;;4.07;;
19193;SDS011;9729;52.296;13.260;2022-09-09T07:13:16;5.87;;;3.47;;
19193;SDS011;9729;52.296;13.260;2022-09-09T07:15:43;9.93;;;3.37;;
19193;SDS011;9729;52.296;13.260;2022-09-09T07:18:10;7.57;;;3.07;;
19193;SDS011;9729;52.296;13.260;2022-09-09T07:20:36;6.53;;;3.40;;
19193;SDS011;9729;52.296;13.260;2022-09-09T07:23:04;8.47;;;3.20;;
19193;SDS011;9729;52.296;13.260;2022-09-09T07:25:31;6.07;;;2.93;;
19193;SDS011;9729;52.296;13.260;2022-09-09T07:27:58;5.83;;;2.83;;
19193;SDS011;9729;52.296;13.260;2022-09-09T07:30:24;6.93;;;2.93;;
19193;SDS011;9729;52.296;13.260;2022-09-09T07:32:51;5.33;;;2.80;;
19193;SDS011;9729;52.296;13.260;2022-09-09T07:35:17;3.47;;;2.20;;
19193;SDS011;9729;52.296;13.260;2022-09-09T07:37:44;7.13;;;2.53;;
19193;SDS011;9729;52.296;13.260;2022-09-09T07:40:11;5.40;;;2.20;;
19193;SDS011;9729;52.296;13.260;2022-09-09T07:42:38;6.70;;;2.60;;
19193;SDS011;9729;52.296;13.260;2022-09-09T07:45:04;8.53;;;2.73;;
19193;SDS011;9729;52.296;13.260;2022-09-09T07:47:31;5.83;;;1.97;;
19193;SDS011;9729;52.296;13.260;2022-09-09T07:49:58;5.10;;;2.33;;
19193;SDS011;9729;52.296;13.260;2022-09-09T07:52:24;8.30;;;2.23;;
19193;SDS011;9729;52.296;13.260;2022-09-09T07:54:52;7.30;;;2.17;;
19193;SDS011;9729;52.296;13.260;2022-09-09T07:57:20;9.47;;;2.30;;
19193;SDS011;9729;52.296;13.260;2022-09-09T07:59:46;5.17;;;2.17;;
19193;SDS011;9729;52.296;13.260;2022-09-09T08:02:12;11.07;;;2.50;;
19193;SDS011;9729;52.296;13.260;2022-09-09T08:04:39;8.00;;;2.67;;
19193;SDS011;9729;52.296;13.260;2022-09-09T08:07:06;5.43;;;1.80;;
19193;SDS011;9729;52.296;13.260;2022-09-09T08:09:33;3.67;;;2.00;;
19193;SDS011;9729;52.296;13.260;2022-09-09T08:11:59;4.30;;;2.00;;
19193;SDS011;9729;52.296;13.260;2022-09-09T08:14:27;3.30;;;2.10;;
19193;SDS011;9729;52.296;13.260;2022-09-09T08:16:54;3.93;;;1.93;;
19193;SDS011;9729;52.296;13.260;2022-09-09T08:19:22;4.73;;;1.73;;
19193;SDS011;9729;52.296;13.260;2022-09-09T08:21:48;4.97;;;2.00;;
19193;SDS011;9729;52.296;13.260;2022-09-09T08:24:15;4.63;;;1.70;;
19193;SDS011;9729;52.296;13.260;2022-09-09T08:26:42;10.17;;;1.73;;
19193;SDS011;9729;52.296;13.260;2022-09-09T08:29:10;5.30;;;1.70;;
19193;SDS011;9729;52.296;13.260;2022-09-09T08:31:40;6.77;;;1.90;;
19193;SDS011;9729;52.296;13.260;2022-09-09T08:34:08;6.27;;;2.10;;
19193;SDS011;9729;52.296;13.260;2022-09-09T08:36:36;4.53;;;2.10;;
19193;SDS011;9729;52.296;13.260;2022-09-09T08:39:03;4.40;;;2.10;;
19193;SDS011;9729;52.296;13.260;2022-09-09T08:41:35;8.27;;;2.30;;
19193;SDS011;9729;52.296;13.260;2022-09-09T08:44:06;9.90;;;2.10;;
19193;SDS011;9729;52.296;13.260;2022-09-09T08:46:35;4.13;;;1.87;;
19193;SDS011;9729;52.296;13.260;2022-09-09T08:49:12;4.87;;;1.97;;
19193;SDS011;9729;52.296;13.260;2022-09-09T08:51:44;4.17;;;1.50;;
19193;SDS011;9729;52.296;13.260;2022-09-09T08:54:10;5.10;;;1.53;;
19193;SDS011;9729;52.296;13.260;2022-09-09T08:56:37;8.83;;;1.80;;
19193;SDS011;9729;52.296;13.260;2022-09-09T08:59:03;6.80;;;2.10;;
19193;SDS011;9729;52.296;13.260;2022-09-09T09:01:36;4.47;;;1.67;;
19193;SDS011;9729;52.296;13.260;2022-09-09T09:04:12;5.03;;;1.87;;
19193;SDS011;9729;52.296;13.260;2022-09-09T09:06:49;3.67;;;1.37;;
19193;SDS011;9729;52.296;13.260;2022-09-09T09:09:20;5.00;;;2.00;;
19193;SDS011;9729;52.296;13.260;2022-09-09T09:11:49;3.70;;;1.70;;
19193;SDS011;9729;52.296;13.260;2022-09-09T09:14:17;5.67;;;1.60;;
19193;SDS011;9729;52.296;13.260;2022-09-09T09:16:50;2.33;;;1.47;;
19193;SDS011;9729;52.296;13.260;2022-09-09T09:19:19;2.70;;;1.63;;
19193;SDS011;9729;52.296;13.260;2022-09-09T09:21:48;3.50;;;1.50;;
19193;SDS011;9729;52.296;13.260;2022-09-09T09:24:19;4.20;;;1.50;;
19193;SDS011;9729;52.296;13.260;2022-09-09T09:26:46;5.13;;;1.77;;
19193;SDS011;9729;52.296;13.260;2022-09-09T09:29:13;5.53;;;1.20;;
19193;SDS011;9729;52.296;13.260;2022-09-09T09:31:41;4.67;;;1.57;;
19193;SDS011;9729;52.296;13.260;2022-09-09T09:34:11;3.97;;;1.50;;
19193;SDS011;9729;52.296;13.260;2022-09-09T09:36:39;3.60;;;1.37;;
19193;SDS011;9729;52.296;13.260;2022-09-09T09:39:07;3.90;;;1.40;;
19193;SDS011;9729;52.296;13.260;2022-09-09T09:41:35;4.27;;;1.27;;
19193;SDS011;9729;52.296;13.260;2022-09-09T09:44:03;3.03;;;1.30;;
19193;SDS011;9729;52.296;13.260;2022-09-09T09:46:30;5.20;;;1.37;;
19193;SDS011;9729;52.296;13.260;2022-09-09T09:48:57;5.07;;;1.40;;
19193;SDS011;9729;52.296;13.260;2022-09-09T09:51:26;3.37;;;0.90;;
19193;SDS011;9729;52.296;13.260;2022-09-09T09:53:53;13.57;;;1.73;;
19193;SDS011;9729;52.296;13.260;2022-09-09T09:56:26;6.73;;;1.13;;
19193;SDS011;9729;52.296;13.260;2022-09-09T09:58:53;11.60;;;1.83;;
19193;SDS011;9729;52.296;13.260;2022-09-09T10:01:21;8.33;;;1.63;;
19193;SDS011;9729;52.296;13.260;2022-09-09T10:03:50;5.93;;;1.40;;
19193;SDS011;9729;52.296;13.260;2022-09-09T10:06:17;3.90;;;1.33;;
19193;SDS011;9729;52.296;13.260;2022-09-09T10:08:55;3.30;;;1.20;;
19193;SDS011;9729;52.296;13.260;2022-09-09T10:11:25;4.83;;;1.20;;
19193;SDS011;9729;52.296;13.260;2022-09-09T10:14:00;4.27;;;1.73;;
19193;SDS011;9729;52.296;13.260;2022-09-09T10:16:35;5.13;;;1.10;;
19193;SDS011;9729;52.296;13.260;2022-09-09T10:19:13;6.20;;;1.27;;
19193;SDS011;9729;52.296;13.260;2022-09-09T10:21:44;2.87;;;1.07;;
19193;SDS011;9729;52.296;13.260;2022-09-09T10:24:25;4.17;;;1.07;;
19193;SDS011;9729;52.296;13.260;2022-09-09T10:27:01;2.70;;;0.80;;
19193;SDS011;9729;52.296;13.260;2022-09-09T10:29:35;6.40;;;1.40;;
19193;SDS011;9729;52.296;13.260;2022-09-09T10:32:12;5.53;;;1.20;;
19193;SDS011;9729;52.296;13.260;2022-09-09T10:34:54;6.00;;;0.97;;
19193;SDS011;9729;52.296;13.260;2022-09-09T10:37:26;5.97;;;1.33;;
19193;SDS011;9729;52.296;13.260;2022-09-09T10:40:08;4.03;;;1.40;;
19193;SDS011;9729;52.296;13.260;2022-09-09T10:42:46;4.03;;;0.90;;
19193;SDS011;9729;52.296;13.260;2022-09-09T10:45:15;5.23;;;1.93;;
19193;SDS011;9729;52.296;13.260;2022-09-09T10:47:47;2.17;;;1.00;;
19193;SDS011;9729;52.296;13.260;2022-09-09T10:50:34;3.63;;;1.17;;
19193;SDS011;9729;52.296;13.260;2022-09-09T10:53:08;6.30;;;0.97;;
19193;SDS011;9729;52.296;13.260;2022-09-09T10:55:40;8.63;;;1.20;;
19193;SDS011;9729;52.296;13.260;2022-09-09T10:58:10;3.10;;;0.90;;
19193;SDS011;9729;52.296;13.260;2022-09-09T11:00:38;0.83;;;0.77;;
19193;SDS011;9729;52.296;13.260;2022-09-09T11:03:08;2.03;;;1.00;;
19193;SDS011;9729;52.296;13.260;2022-09-09T11:05:44;3.77;;;0.80;;
19193;SDS011;9729;52.296;13.260;2022-09-09T11:08:13;1.97;;;0.63;;
19193;SDS011;9729;52.296;13.260;2022-09-09T11:10:43;6.00;;;1.53;;
19193;SDS011;9729;52.296;13.260;2022-09-09T11:13:17;2.03;;;0.80;;
19193;SDS011;9729;52.296;13.260;2022-09-09T11:15:46;7.07;;;1.10;;
19193;SDS011;9729;52.296;13.260;2022-09-09T11:18:17;3.73;;;0.80;;
19193;SDS011;9729;52.296;13.260;2022-09-09T11:20:46;5.87;;;1.23;;
19193;SDS011;9729;52.296;13.260;2022-09-09T11:23:15;1.60;;;0.70;;
19193;SDS011;9729;52.296;13.260;2022-09-09T11:25:47;5.37;;;1.37;;
19193;SDS011;9729;52.296;13.260;2022-09-09T11:28:20;2.47;;;0.83;;
19193;SDS011;9729;52.296;13.260;2022-09-09T11:30:56;4.23;;;0.93;;
19193;SDS011;9729;52.296;13.260;2022-09-09T11:36:34;3.00;;;1.00;;
19193;SDS011;9729;52.296;13.260;2022-09-09T11:39:14;2.50;;;0.67;;
19193;SDS011;9729;52.296;13.260;2022-09-09T11:41:55;2.50;;;0.50;;
19193;SDS011;9729;52.296;13.260;2022-09-09T11:44:32;3.03;;;1.00;;
19193;SDS011;9729;52.296;13.260;2022-09-09T11:46:59;3.53;;;0.87;;
19193;SDS011;9729;52.296;13.260;2022-09-09T11:49:26;2.13;;;0.70;;
19193;SDS011;9729;52.296;13.260;2022-09-09T11:51:54;5.33;;;1.00;;
19193;SDS011;9729;52.296;13.260;2022-09-09T11:54:26;3.80;;;1.17;;
19193;SDS011;9729;52.296;13.260;2022-09-09T11:56:56;4.93;;;0.83;;
19193;SDS011;9729;52.296;13.260;2022-09-09T11:59:23;7.73;;;1.10;;
19193;SDS011;9729;52.296;13.260;2022-09-09T12:01:50;2.63;;;1.40;;
19193;SDS011;9729;52.296;13.260;2022-09-09T12:04:28;4.77;;;0.90;;
19193;SDS011;9729;52.296;13.260;2022-09-09T12:06:58;3.30;;;0.87;;
19193;SDS011;9729;52.296;13.260;2022-09-09T12:09:29;3.33;;;0.93;;
19193;SDS011;9729;52.296;13.260;2022-09-09T12:12:22;4.57;;;1.10;;
19193;SDS011;9729;52.296;13.260;2022-09-09T12:14:59;4.03;;;1.37;;
19193;SDS011;9729;52.296;13.260;2022-09-09T12:17:46;5.63;;;1.00;;
19193;SDS011;9729;52.296;13.260;2022-09-09T12:20:14;3.40;;;1.33;;
19193;SDS011;9729;52.296;13.260;2022-09-09T12:22:48;5.07;;;1.17;;
19193;SDS011;9729;52.296;13.260;2022-09-09T12:25:23;2.47;;;1.00;;
19193;SDS011;9729;52.296;13.260;2022-09-09T12:27:59;3.60;;;0.80;;
19193;SDS011;9729;52.296;13.260;2022-09-09T12:30:29;5.37;;;1.00;;
19193;SDS011;9729;52.296;13.260;2022-09-09T12:33:01;3.93;;;1.20;;
19193;SDS011;9729;52.296;13.260;2022-09-09T12:35:28;5.50;;;1.13;;
19193;SDS011;9729;52.296;13.260;2022-09-09T12:37:56;1.83;;;0.53;;
19193;SDS011;9729;52.296;13.260;2022-09-09T12:40:25;3.33;;;1.43;;
19193;SDS011;9729;52.296;13.260;2022-09-09T12:42:53;2.97;;;0.90;;
19193;SDS011;9729;52.296;13.260;2022-09-09T12:45:22;4.53;;;0.60;;
19193;SDS011;9729;52.296;13.260;2022-09-09T12:47:51;3.83;;;1.10;;
19193;SDS011;9729;52.296;13.260;2022-09-09T12:50:21;4.03;;;1.03;;
19193;SDS011;9729;52.296;13.260;2022-09-09T12:52:50;12.10;;;1.40;;
19193;SDS011;9729;52.296;13.260;2022-09-09T12:55:19;5.95;;;1.08;;
19193;SDS011;9729;52.296;13.260;2022-09-09T12:57:47;2.87;;;1.00;;
19193;SDS011;9729;52.296;13.260;2022-09-09T13:00:16;7.37;;;1.00;;
19193;SDS011;9729;52.296;13.260;2022-09-09T13:02:48;6.00;;;0.97;;
19193;SDS011;9729;52.296;13.260;2022-09-09T13:05:17;6.10;;;0.90;;
19193;SDS011;9729;52.296;13.260;2022-09-09T13:07:45;3.00;;;1.00;;
19193;SDS011;9729;52.296;13.260;2022-09-09T13:10:12;5.83;;;0.83;;
19193;SDS011;9729;52.296;13.260;2022-09-09T13:12:39;3.10;;;0.90;;
19193;SDS011;9729;52.296;13.260;2022-09-09T13:15:09;5.37;;;1.10;;
19193;SDS011;9729;52.296;13.260;2022-09-09T13:17:40;1.50;;;0.70;;
19193;SDS011;9729;52.296;13.260;2022-09-09T13:20:15;4.60;;;1.27;;
19193;SDS011;9729;52.296;13.260;2022-09-09T13:22:42;2.30;;;0.93;;
19193;SDS011;9729;52.296;13.260;2022-09-09T13:25:17;2.30;;;0.70;;
19193;SDS011;9729;52.296;13.260;2022-09-09T13:27:51;3.77;;;1.03;;
19193;SDS011;9729;52.296;13.260;2022-09-09T13:30:20;2.07;;;0.73;;
19193;SDS011;9729;52.296;13.260;2022-09-09T13:32:59;5.20;;;0.90;;
19193;SDS011;9729;52.296;13.260;2022-09-09T13:35:28;2.83;;;0.87;;
19193;SDS011;9729;52.296;13.260;2022-09-09T13:37:54;4.10;;;1.20;;
19193;SDS011;9729;52.296;13.260;2022-09-09T13:40:21;3.73;;;1.00;;
19193;SDS011;9729;52.296;13.260;2022-09-09T13:42:50;11.50;;;2.60;;
19193;SDS011;9729;52.296;13.260;2022-09-09T13:45:19;6.07;;;1.57;;
19193;SDS011;9729;52.296;13.260;2022-09-09T13:47:46;6.60;;;1.50;;
19193;SDS011;9729;52.296;13.260;2022-09-09T13:50:20;3.90;;;1.20;;
19193;SDS011;9729;52.296;13.260;2022-09-09T13:52:49;8.23;;;1.17;;
19193;SDS011;9729;52.296;13.260;2022-09-09T13:55:18;5.17;;;1.53;;
19193;SDS011;9729;52.296;13.260;2022-09-09T13:57:52;8.47;;;1.30;;
19193;SDS011;9729;52.296;13.260;2022-09-09T14:00:19;4.77;;;1.07;;
19193;SDS011;9729;52.296;13.260;2022-09-09T14:02:46;5.40;;;1.13;;
19193;SDS011;9729;52.296;13.260;2022-09-09T14:05:13;4.93;;;1.37;;
19193;SDS011;9729;52.296;13.260;2022-09-09T14:07:40;3.87;;;1.30;;
19193;SDS011;9729;52.296;13.260;2022-09-09T14:10:08;6.83;;;1.60;;
19193;SDS011;9729;52.296;13.260;2022-09-09T14:12:35;8.83;;;1.73;;
19193;SDS011;9729;52.296;13.260;2022-09-09T14:15:02;7.07;;;1.83;;
19193;SDS011;9729;52.296;13.260;2022-09-09T14:17:28;6.57;;;2.07;;
19193;SDS011;9729;52.296;13.260;2022-09-09T14:19:56;5.97;;;1.47;;
19193;SDS011;9729;52.296;13.260;2022-09-09T14:22:22;5.40;;;1.27;;
19193;SDS011;9729;52.296;13.260;2022-09-09T14:24:49;5.97;;;1.00;;
19193;SDS011;9729;52.296;13.260;2022-09-09T14:27:17;0.50;;;0.50;;
19193;SDS011;9729;52.296;13.260;2022-09-09T14:29:44;4.97;;;1.10;;
19193;SDS011;9729;52.296;13.260;2022-09-09T14:32:11;4.00;;;0.60;;
19193;SDS011;9729;52.296;13.260;2022-09-09T14:34:37;5.13;;;0.90;;
19193;SDS011;9729;52.296;13.260;2022-09-09T14:37:04;7.07;;;1.20;;
19193;SDS011;9729;52.296;13.260;2022-09-09T14:39:31;3.40;;;1.10;;
19193;SDS011;9729;52.296;13.260;2022-09-09T14:41:57;5.63;;;0.77;;
19193;SDS011;9729;52.296;13.260;2022-09-09T14:44:25;4.10;;;0.90;;
19193;SDS011;9729;52.296;13.260;2022-09-09T14:46:51;5.83;;;1.17;;
19193;SDS011;9729;52.296;13.260;2022-09-09T14:49:19;3.20;;;1.27;;
19193;SDS011;9729;52.296;13.260;2022-09-09T14:51:45;4.63;;;0.90;;
19193;SDS011;9729;52.296;13.260;2022-09-09T14:54:12;5.80;;;0.90;;
19193;SDS011;9729;52.296;13.260;2022-09-09T14:56:39;4.63;;;1.23;;
19193;SDS011;9729;52.296;13.260;2022-09-09T14:59:06;4.57;;;0.90;;
19193;SDS011;9729;52.296;13.260;2022-09-09T15:01:33;3.87;;;1.00;;